Time;durP1;ratioP1;P1;durP2;ratioP2;P2;SDS_P1;SDS_P2;PMS_P1;PMS_P2;Temp;Humidity;BMP_temperature;BMP_pressure;BME280_temperature;BME280_humidity;BME280_pressure;Samples;Min_cycle;Max_cycle;Signal;HPM_P1;HPM_P2
2023/08/19 00:01:08;;;;;;;155.85;107.95;;;27.00;99.90;;;;;;4975173;28;20019;-72
2023/08/19 00:03:35;;;;;;;134.98;117.90;;;27.10;99.90;;;;;;4974888;28;20134;-70
2023/08/19 00:06:09;;;;;;;156.45;125.15;;;27.10;99.90;;;;;;4974987;28;20106;-72
2023/08/19 00:08:36;;;;;;;299.73;105.78;;;27.20;99.90;;;;;;4975048;28;20023;-74
2023/08/19 00:11:04;;;;;;;307.95;76.35;;;27.20;99.90;;;;;;4974965;28;20023;-71
2023/08/19 00:13:30;;;;;;;196.43;65.95;;;27.20;99.90;;;;;;4975407;28;20027;-71
2023/08/19 00:15:57;;;;;;;474.25;117.00;;;27.20;99.90;;;;;;4964109;28;20028;-71
2023/08/19 00:18:24;;;;;;;166.45;113.85;;;27.20;99.90;;;;;;4955434;28;20024;-71
2023/08/19 00:20:51;;;;;;;127.68;109.55;;;27.20;99.90;;;;;;4955404;28;20047;-69
2023/08/19 00:23:18;;;;;;;134.07;118.10;;;27.20;99.90;;;;;;4959875;28;20569;-70
2023/08/19 00:25:44;;;;;;;102.25;91.05;;;27.20;99.90;;;;;;4957301;28;20047;-70
2023/08/19 00:28:11;;;;;;;134.55;121.22;;;27.20;99.90;;;;;;4974116;28;20023;-70
2023/08/19 00:30:37;;;;;;;133.60;120.10;;;27.30;99.90;;;;;;4974653;28;20109;-71
2023/08/19 00:33:04;;;;;;;99.28;88.63;;;27.30;99.90;;;;;;4974548;28;20027;-71
2023/08/19 00:35:32;;;;;;;128.85;116.28;;;27.20;99.90;;;;;;4974683;28;20077;-70
2023/08/19 00:37:59;;;;;;;102.13;91.82;;;27.30;99.90;;;;;;4974442;28;20023;-70
2023/08/19 00:40:25;;;;;;;118.70;91.63;;;27.30;99.90;;;;;;4974440;28;20073;-70
2023/08/19 00:42:52;;;;;;;125.60;107.20;;;27.40;99.90;;;;;;4974334;28;20022;-71
2023/08/19 00:45:18;;;;;;;145.60;131.32;;;27.30;99.90;;;;;;4974652;28;20022;-70
2023/08/19 00:47:45;;;;;;;105.50;94.20;;;27.40;99.90;;;;;;4974364;28;20022;-71
2023/08/19 00:50:13;;;;;;;222.20;173.70;;;27.40;99.90;;;;;;4974543;28;20027;-69
2023/08/19 00:52:40;;;;;;;204.95;165.95;;;27.50;99.90;;;;;;4974444;28;20027;-68
2023/08/19 00:55:08;;;;;;;178.25;157.52;;;27.50;99.90;;;;;;4974187;28;20110;-69
2023/08/19 00:57:37;;;;;;;128.73;116.88;;;27.50;99.90;;;;;;4974356;28;20077;-70
2023/08/19 01:00:06;;;;;;;154.82;140.30;;;27.50;99.90;;;;;;4974417;28;20077;-73
2023/08/19 01:02:32;;;;;;;156.80;141.85;;;27.50;99.90;;;;;;4974255;28;20031;-71
2023/08/19 01:04:59;;;;;;;165.43;149.57;;;27.60;99.90;;;;;;4974245;28;20041;-68
2023/08/19 01:07:53;;;;;;;146.05;132.50;;;27.60;99.90;;;;;;4974402;28;20026;-71
2023/08/19 01:10:35;;;;;;;151.70;137.82;;;27.70;99.90;;;;;;4974282;28;20077;-71
2023/08/19 01:13:14;;;;;;;126.93;114.43;;;27.70;99.90;;;;;;4974166;28;20023;-69
2023/08/19 01:15:59;;;;;;;206.13;166.98;;;27.80;99.90;;;;;;4974331;28;20027;-70
2023/08/19 01:18:26;;;;;;;188.80;157.77;;;27.80;99.90;;;;;;4974179;28;20031;-70
2023/08/19 01:20:54;;;;;;;168.77;130.23;;;27.90;99.90;;;;;;4974003;28;20043;-70
2023/08/19 01:23:38;;;;;;;96.90;86.60;;;27.90;99.90;;;;;;4972752;28;20390;-68
2023/08/19 01:26:04;;;;;;;88.70;79.40;;;28.00;99.90;;;;;;4966044;28;20395;-67
2023/08/19 01:28:31;;;;;;;96.45;85.40;;;28.00;99.90;;;;;;4973737;28;20030;-69
2023/08/19 01:30:58;;;;;;;272.80;241.25;;;28.10;99.90;;;;;;4973958;28;20037;-70
2023/08/19 01:33:25;;;;;;;273.48;246.82;;;28.20;99.90;;;;;;4974155;28;20035;-70
2023/08/19 01:36:26;;;;;;;183.15;164.52;;;28.30;99.90;;;;;;4968792;28;20082;-69
2023/08/19 01:38:59;;;;;;;214.77;193.73;;;28.40;99.90;;;;;;4946112;28;20035;-70
2023/08/19 01:41:28;;;;;;;145.43;131.70;;;28.50;99.90;;;;;;4971415;28;20542;-69
2023/08/19 01:43:57;;;;;;;213.63;193.60;;;28.50;99.90;;;;;;4977718;28;20455;-69
2023/08/19 01:46:24;;;;;;;195.07;176.70;;;28.60;99.90;;;;;;4977585;28;20019;-70
2023/08/19 01:48:51;;;;;;;219.20;198.73;;;28.60;99.90;;;;;;4971634;28;20051;-70
2023/08/19 01:51:18;;;;;;;269.35;240.50;;;28.70;99.90;;;;;;4967209;28;20445;-71
2023/08/19 01:53:44;;;;;;;214.77;194.77;;;28.80;99.90;;;;;;5006634;22;20057;-69
2023/08/19 01:56:12;;;;;;;143.57;129.60;;;28.80;99.90;;;;;;5043912;28;20037;-69
2023/08/19 01:58:39;;;;;;;185.82;168.40;;;28.80;99.90;;;;;;5055882;28;20021;-70
2023/08/19 02:01:09;;;;;;;158.98;143.32;;;28.90;99.90;;;;;;5056737;28;20025;-69
2023/08/19 02:03:36;;;;;;;193.10;174.85;;;28.90;99.90;;;;;;5056423;28;20032;-69
2023/08/19 02:06:02;;;;;;;187.70;170.38;;;28.90;99.90;;;;;;5056435;28;20044;-68
2023/08/19 02:08:29;;;;;;;174.80;157.43;;;28.90;99.90;;;;;;5056274;28;20464;-71
2023/08/19 02:10:56;;;;;;;151.27;136.25;;;28.90;99.90;;;;;;5056159;28;20150;-72
2023/08/19 02:13:22;;;;;;;221.32;199.38;;;28.90;99.90;;;;;;5056136;28;20039;-72
2023/08/19 02:15:49;;;;;;;300.30;270.02;;;28.90;99.90;;;;;;5056073;28;20163;-71
2023/08/19 02:18:15;;;;;;;387.15;345.83;;;28.90;99.90;;;;;;5055794;28;20032;-71
2023/08/19 02:20:47;;;;;;;1148.70;999.90;;;28.90;99.90;;;;;;5056505;28;20407;-72
2023/08/19 02:23:14;;;;;;;1030.90;926.13;;;29.00;99.90;;;;;;5056050;28;20024;-71
2023/08/19 02:25:40;;;;;;;889.28;801.10;;;28.90;99.90;;;;;;5055907;28;20017;-72
2023/08/19 02:28:07;;;;;;;913.00;822.03;;;28.90;99.90;;;;;;5055996;28;20126;-68
2023/08/19 02:30:33;;;;;;;810.88;729.75;;;29.00;99.90;;;;;;5056035;28;20541;-72
2023/08/19 02:33:08;;;;;;;558.50;500.35;;;29.00;99.90;;;;;;5055642;28;20028;-71
2023/08/19 02:35:35;;;;;;;508.98;454.52;;;29.10;99.90;;;;;;5056103;28;20031;-69
2023/08/19 02:38:02;;;;;;;537.72;481.15;;;29.30;99.90;;;;;;5055608;28;20025;-71
2023/08/19 02:40:32;;;;;;;770.70;695.05;;;29.30;99.90;;;;;;5055573;28;20021;-69
2023/08/19 02:42:59;;;;;;;1195.15;999.90;;;29.40;99.90;;;;;;5055675;28;20104;-69
2023/08/19 02:45:27;;;;;;;1159.65;999.90;;;29.50;99.90;;;;;;5042857;28;20469;-69
2023/08/19 02:47:54;;;;;;;628.13;565.70;;;29.70;99.90;;;;;;5045572;28;20467;-68
2023/08/19 02:50:20;;;;;;;594.05;534.45;;;29.80;99.90;;;;;;5054919;28;20431;-68
2023/08/19 02:52:47;;;;;;;599.28;539.47;;;29.80;99.90;;;;;;5036552;28;20033;-67
2023/08/19 02:55:13;;;;;;;503.63;452.23;;;29.90;99.90;;;;;;5035558;28;20606;-67
2023/08/19 02:57:40;;;;;;;444.58;398.50;;;29.90;99.90;;;;;;5035604;28;20026;-66
2023/08/19 03:00:07;;;;;;;468.73;419.70;;;30.00;99.90;;;;;;5035550;28;20025;-66
2023/08/19 03:02:34;;;;;;;512.47;460.00;;;30.10;99.90;;;;;;5035239;28;20111;-68
2023/08/19 03:05:00;;;;;;;500.80;449.02;;;30.20;99.90;;;;;;5034701;28;20033;-70
2023/08/19 03:07:27;;;;;;;551.53;495.85;;;30.30;99.90;;;;;;5033634;28;20049;-66
2023/08/19 03:09:53;;;;;;;486.50;436.35;;;30.30;99.90;;;;;;5034584;28;20080;-67
2023/08/19 03:12:20;;;;;;;540.72;486.30;;;30.30;99.90;;;;;;5033008;28;20505;-68
2023/08/19 03:14:46;;;;;;;482.65;433.10;;;30.50;99.90;;;;;;5033123;28;20035;-65
2023/08/19 03:17:13;;;;;;;476.92;427.52;;;30.50;99.90;;;;;;5034340;28;20029;-66
2023/08/19 03:19:39;;;;;;;487.25;437.10;;;30.50;99.90;;;;;;5035138;28;20491;-65
2023/08/19 03:22:06;;;;;;;480.45;430.90;;;30.60;99.90;;;;;;5034015;28;20060;-66
2023/08/19 03:24:33;;;;;;;495.08;444.15;;;30.60;99.90;;;;;;5033895;28;20044;-69
2023/08/19 03:26:59;;;;;;;528.83;475.50;;;30.70;99.90;;;;;;5031472;28;20013;-68
2023/08/19 03:29:26;;;;;;;492.50;441.55;;;30.70;99.90;;;;;;5034098;28;20075;-69
2023/08/19 03:31:52;;;;;;;493.63;442.77;;;30.80;99.90;;;;;;5048213;28;20028;-70
2023/08/19 03:34:19;;;;;;;515.80;463.05;;;30.80;99.90;;;;;;5048626;28;20037;-70
2023/08/19 03:36:47;;;;;;;501.05;449.40;;;30.80;99.90;;;;;;5033907;28;20090;-70
2023/08/19 03:39:13;;;;;;;428.83;384.60;;;30.90;99.90;;;;;;5032765;28;20033;-73
2023/08/19 03:41:40;;;;;;;388.70;349.35;;;30.90;99.90;;;;;;5033445;28;20013;-70
2023/08/19 03:44:06;;;;;;;354.27;318.85;;;31.00;99.90;;;;;;5033133;28;20029;-69
2023/08/19 03:46:33;;;;;;;396.50;356.25;;;31.00;99.90;;;;;;5031680;28;20021;-70
2023/08/19 03:48:59;;;;;;;337.70;304.95;;;31.10;99.90;;;;;;5033277;28;20021;-69
2023/08/19 03:51:27;;;;;;;334.40;301.70;;;31.10;99.90;;;;;;5030601;28;20025;-70
2023/08/19 03:53:53;;;;;;;346.10;312.00;;;31.20;99.90;;;;;;5033356;28;20021;-71
2023/08/19 03:56:20;;;;;;;336.25;303.02;;;31.30;99.90;;;;;;5033048;28;20108;-70
2023/08/19 03:58:47;;;;;;;250.38;226.82;;;31.30;99.90;;;;;;5033957;28;20411;-69
2023/08/19 04:01:13;;;;;;;220.50;200.70;;;31.40;99.90;;;;;;5033498;28;20017;-68
2023/08/19 04:03:40;;;;;;;216.32;197.13;;;31.40;99.90;;;;;;5033856;28;20144;-68
2023/08/19 04:06:07;;;;;;;201.57;183.43;;;31.40;99.90;;;;;;5033694;28;20026;-69
2023/08/19 04:08:33;;;;;;;211.27;192.52;;;31.40;99.90;;;;;;5034283;28;20456;-69
2023/08/19 04:11:09;;;;;;;196.90;179.23;;;31.40;99.90;;;;;;5033507;28;20021;-68
2023/08/19 04:13:35;;;;;;;216.45;197.10;;;31.40;99.90;;;;;;5032265;28;20028;-68
2023/08/19 04:16:04;;;;;;;245.43;223.23;;;31.50;99.90;;;;;;5030731;28;20480;-69
2023/08/19 04:18:32;;;;;;;238.95;217.25;;;31.60;99.90;;;;;;5033360;28;20059;-70
2023/08/19 04:21:04;;;;;;;201.55;182.23;;;31.60;99.90;;;;;;5031951;28;20022;-68
2023/08/19 04:23:33;;;;;;;271.17;245.93;;;31.70;99.90;;;;;;5033122;28;20105;-69
2023/08/19 04:25:59;;;;;;;285.15;258.42;;;31.70;99.90;;;;;;5034476;28;20464;-69
2023/08/19 04:28:26;;;;;;;251.98;228.82;;;31.70;99.90;;;;;;5034307;28;20028;-70
2023/08/19 04:31:11;;;;;;;285.33;258.42;;;31.70;99.90;;;;;;5033578;28;20060;-68
2023/08/19 04:33:38;;;;;;;294.10;266.17;;;31.70;99.90;;;;;;5034095;28;20028;-70
2023/08/19 04:36:05;;;;;;;378.05;339.70;;;31.70;99.90;;;;;;5033605;28;20037;-68
2023/08/19 04:38:32;;;;;;;571.45;512.78;;;31.70;99.90;;;;;;5033681;28;20032;-70
2023/08/19 04:41:00;;;;;;;1551.47;999.90;;;31.70;99.90;;;;;;5033804;28;20056;-69
2023/08/19 04:43:28;;;;;;;1030.00;929.78;;;31.70;99.90;;;;;;5033726;28;20033;-68
2023/08/19 04:45:54;;;;;;;835.05;754.33;;;31.60;99.90;;;;;;5032544;28;20022;-69
2023/08/19 04:48:21;;;;;;;927.72;837.08;;;31.60;99.90;;;;;;5033777;28;20017;-69
2023/08/19 04:50:49;;;;;;;1065.28;961.60;;;31.60;99.90;;;;;;5033307;28;20025;-69
2023/08/19 04:53:16;;;;;;;1231.97;999.90;;;31.60;99.90;;;;;;5033414;28;20037;-72
2023/08/19 04:55:42;;;;;;;1033.53;931.83;;;31.60;99.90;;;;;;5030191;28;20072;-71
2023/08/19 04:58:09;;;;;;;928.38;836.92;;;31.70;99.90;;;;;;5033611;28;20041;-69
2023/08/19 05:00:36;;;;;;;791.88;716.08;;;31.80;99.90;;;;;;5033168;28;20033;-69
2023/08/19 05:03:03;;;;;;;691.92;624.67;;;31.80;99.90;;;;;;5030323;28;20017;-69
2023/08/19 05:05:29;;;;;;;648.70;585.50;;;31.90;99.90;;;;;;5031711;28;20415;-68
2023/08/19 05:07:56;;;;;;;581.92;523.35;;;31.90;99.90;;;;;;5032836;28;20017;-67
2023/08/19 05:10:22;;;;;;;597.08;537.67;;;31.90;99.90;;;;;;5030018;28;20017;-67
2023/08/19 05:12:49;;;;;;;519.03;466.33;;;32.10;99.90;;;;;;5030799;28;20045;-66
2023/08/19 05:15:15;;;;;;;501.88;450.13;;;32.20;99.90;;;;;;5035655;28;20025;-66
2023/08/19 05:17:42;;;;;;;517.03;464.15;;;32.30;99.90;;;;;;5034245;28;20067;-69
2023/08/19 05:20:09;;;;;;;566.65;510.13;;;32.40;99.90;;;;;;5036815;28;20051;-68
2023/08/19 05:22:35;;;;;;;473.02;424.30;;;32.30;99.90;;;;;;5036977;28;20037;-67
2023/08/19 05:25:04;;;;;;;460.40;412.95;;;32.20;99.90;;;;;;5033969;28;20040;-68
2023/08/19 05:27:31;;;;;;;454.10;407.42;;;32.20;99.90;;;;;;5036730;28;20495;-68
2023/08/19 05:29:57;;;;;;;405.13;363.88;;;32.20;99.90;;;;;;5036806;28;20076;-68
2023/08/19 05:32:24;;;;;;;438.60;392.55;;;32.20;99.90;;;;;;5037312;28;20081;-69
2023/08/19 05:34:50;;;;;;;439.52;393.63;;;32.20;99.90;;;;;;5037465;28;20428;-67
2023/08/19 05:37:17;;;;;;;547.22;491.60;;;32.20;99.90;;;;;;5035657;28;20037;-67
2023/08/19 05:39:43;;;;;;;561.20;504.48;;;32.20;99.90;;;;;;5035418;28;20103;-67
2023/08/19 05:42:11;;;;;;;446.27;400.20;;;32.20;99.90;;;;;;5037393;28;20029;-67
2023/08/19 05:44:38;;;;;;;448.10;401.80;;;32.20;99.90;;;;;;5037081;28;20025;-68
2023/08/19 05:47:05;;;;;;;399.95;359.42;;;32.20;99.90;;;;;;5037251;28;20028;-67
2023/08/19 05:49:32;;;;;;;442.83;397.48;;;32.20;99.90;;;;;;5037028;28;20071;-66
2023/08/19 05:51:58;;;;;;;551.13;495.10;;;32.30;99.90;;;;;;5036768;28;20427;-67
2023/08/19 05:54:25;;;;;;;498.50;446.67;;;32.30;99.90;;;;;;5037042;28;20049;-67
2023/08/19 05:56:51;;;;;;;447.17;401.05;;;32.30;99.90;;;;;;5037105;28;20021;-67
2023/08/19 05:59:18;;;;;;;432.65;387.65;;;32.30;99.90;;;;;;5037263;28;20033;-67
2023/08/19 06:01:44;;;;;;;367.27;330.42;;;32.40;99.90;;;;;;5037406;28;20026;-67
2023/08/19 06:04:11;;;;;;;357.50;322.20;;;32.40;99.90;;;;;;5028913;28;20044;-65
2023/08/19 06:06:37;;;;;;;443.70;397.73;;;32.40;99.90;;;;;;5021106;28;20446;-68
2023/08/19 06:09:04;;;;;;;375.63;338.00;;;32.40;99.90;;;;;;5027659;28;20112;-69
2023/08/19 06:11:30;;;;;;;351.38;316.60;;;32.40;99.90;;;;;;5035820;28;20029;-67
2023/08/19 06:13:58;;;;;;;349.83;315.15;;;32.40;99.90;;;;;;5035531;28;20045;-70
2023/08/19 06:16:25;;;;;;;340.48;307.83;;;32.30;99.90;;;;;;5033795;28;20025;-68
2023/08/19 06:18:51;;;;;;;331.25;298.90;;;32.30;99.90;;;;;;5035954;28;20357;-68
2023/08/19 06:21:18;;;;;;;343.58;310.08;;;32.30;99.90;;;;;;5035773;28;20029;-69
2023/08/19 06:23:44;;;;;;;315.60;285.17;;;32.40;99.90;;;;;;5032770;28;20020;-69
2023/08/19 06:26:11;;;;;;;263.38;238.90;;;32.40;99.90;;;;;;5034249;28;20380;-67
2023/08/19 06:28:37;;;;;;;262.95;238.77;;;32.40;99.90;;;;;;5035393;28;20039;-69
2023/08/19 06:31:04;;;;;;;227.85;207.40;;;32.30;99.90;;;;;;5032807;28;20013;-68
2023/08/19 06:33:31;;;;;;;227.00;206.38;;;32.30;99.90;;;;;;5035403;28;20049;-69
2023/08/19 06:35:59;;;;;;;203.93;185.80;;;32.30;99.90;;;;;;5033211;28;20031;-69
2023/08/19 06:38:29;;;;;;;198.63;181.00;;;32.30;99.90;;;;;;5032460;28;20022;-68
2023/08/19 06:40:58;;;;;;;180.70;164.60;;;32.30;99.90;;;;;;5035098;28;20079;-69
2023/08/19 06:43:26;;;;;;;170.82;154.98;;;32.30;99.90;;;;;;5032469;28;20400;-66
2023/08/19 06:45:55;;;;;;;179.35;163.13;;;32.20;99.90;;;;;;5033144;28;20438;-66
2023/08/19 06:48:23;;;;;;;200.60;182.25;;;32.20;99.90;;;;;;5035136;28;20483;-66
2023/08/19 06:50:51;;;;;;;207.43;188.18;;;32.10;99.90;;;;;;5035081;28;20021;-66
2023/08/19 06:53:18;;;;;;;232.90;210.27;;;32.10;99.90;;;;;;5034929;28;20030;-66
2023/08/19 06:55:55;;;;;;;210.05;190.55;;;32.10;99.90;;;;;;5032232;28;20037;-66
2023/08/19 06:58:26;;;;;;;231.18;209.73;;;32.10;99.90;;;;;;5034170;28;20108;-66
2023/08/19 07:01:00;;;;;;;233.95;212.45;;;32.10;99.90;;;;;;5032769;28;20498;-68
2023/08/19 07:03:33;;;;;;;247.57;224.13;;;32.00;99.90;;;;;;5032112;28;20029;-72
2023/08/19 07:06:00;;;;;;;228.50;207.57;;;32.00;99.90;;;;;;5034568;28;20068;-64
2023/08/19 07:08:30;;;;;;;221.80;201.30;;;32.00;99.90;;;;;;5032017;28;20032;-62
2023/08/19 07:11:01;;;;;;;237.55;215.20;;;32.00;99.90;;;;;;5032176;28;20026;-67
2023/08/19 07:13:28;;;;;;;241.68;219.35;;;32.00;99.90;;;;;;5020548;28;20037;-67
2023/08/19 07:16:02;;;;;;;222.95;201.80;;;32.00;99.90;;;;;;5016807;28;20026;-65
2023/08/19 07:18:34;;;;;;;219.10;199.27;;;32.00;99.90;;;;;;5020820;28;20033;-68
2023/08/19 07:21:04;;;;;;;243.15;220.65;;;32.10;99.90;;;;;;5020041;28;20091;-67
2023/08/19 07:23:31;;;;;;;271.35;245.75;;;32.10;99.90;;;;;;5044261;28;20039;-67
2023/08/19 07:25:58;;;;;;;268.73;243.50;;;32.20;99.90;;;;;;5019998;28;20104;-66
2023/08/19 07:28:25;;;;;;;262.85;238.50;;;32.20;99.90;;;;;;5016951;28;20496;-65
2023/08/19 07:30:52;;;;;;;280.02;254.15;;;32.20;99.90;;;;;;5024243;28;20044;-66
2023/08/19 07:33:19;;;;;;;332.45;299.90;;;32.20;99.90;;;;;;5014961;28;20018;-67
2023/08/19 07:35:46;;;;;;;321.02;290.02;;;32.20;99.90;;;;;;5014998;28;20033;-66
2023/08/19 07:38:12;;;;;;;311.17;280.98;;;32.20;99.90;;;;;;5014534;28;20025;-67
2023/08/19 07:40:39;;;;;;;327.85;296.55;;;32.20;99.90;;;;;;5015101;28;20049;-66
2023/08/19 07:43:05;;;;;;;330.58;298.50;;;32.20;99.90;;;;;;5014657;28;20093;-67
2023/08/19 07:45:32;;;;;;;284.27;257.42;;;32.20;99.90;;;;;;5014474;28;20014;-67
2023/08/19 07:47:58;;;;;;;294.88;267.50;;;32.20;99.90;;;;;;5014960;28;20480;-67
2023/08/19 07:50:25;;;;;;;307.73;278.77;;;32.20;99.90;;;;;;5014919;28;20080;-67
2023/08/19 07:52:52;;;;;;;197.40;180.00;;;32.20;99.90;;;;;;5014526;28;20033;-68
2023/08/19 07:55:19;;;;;;;250.15;226.93;;;32.20;99.90;;;;;;5014372;28;20073;-66
2023/08/19 07:57:45;;;;;;;251.95;228.43;;;32.20;99.90;;;;;;5014707;28;20022;-66
2023/08/19 08:00:12;;;;;;;286.90;259.98;;;32.20;99.90;;;;;;5014268;28;20251;-67
2023/08/19 08:02:39;;;;;;;339.55;306.63;;;32.20;99.90;;;;;;5014497;28;20384;-67
2023/08/19 08:05:06;;;;;;;325.65;294.17;;;32.20;99.90;;;;;;5014238;28;20034;-67
2023/08/19 08:07:32;;;;;;;333.95;301.30;;;32.20;99.90;;;;;;5014317;28;20022;-67
2023/08/19 08:09:59;;;;;;;345.88;311.85;;;32.20;99.90;;;;;;5014182;28;20029;-67
2023/08/19 08:12:25;;;;;;;335.17;302.73;;;32.30;99.90;;;;;;5014272;28;20022;-68
2023/08/19 08:14:52;;;;;;;356.83;321.83;;;32.40;99.90;;;;;;5014080;28;20129;-68
2023/08/19 08:17:18;;;;;;;329.33;297.88;;;32.40;99.90;;;;;;5031932;28;20021;-67
2023/08/19 08:19:45;;;;;;;346.13;312.30;;;32.40;99.90;;;;;;5035844;28;20032;-68
2023/08/19 08:22:11;;;;;;;371.33;333.83;;;32.40;99.90;;;;;;5053725;28;20028;-68
2023/08/19 08:24:38;;;;;;;362.95;326.98;;;32.50;99.90;;;;;;5053568;28;20025;-69
2023/08/19 08:27:04;;;;;;;332.85;300.25;;;32.40;99.90;;;;;;5053636;28;20075;-68
2023/08/19 08:29:31;;;;;;;330.35;298.33;;;32.40;99.90;;;;;;5053875;28;20504;-68
2023/08/19 08:31:57;;;;;;;306.85;277.40;;;32.40;99.90;;;;;;5053475;28;20533;-68
2023/08/19 08:34:24;;;;;;;286.83;259.60;;;32.40;99.90;;;;;;5053572;28;20473;-68
2023/08/19 08:36:51;;;;;;;328.15;296.88;;;32.40;99.90;;;;;;5053303;28;20032;-68
2023/08/19 08:39:17;;;;;;;359.90;323.92;;;32.40;99.90;;;;;;5053442;28;20051;-68
2023/08/19 08:41:45;;;;;;;337.65;304.70;;;32.40;99.90;;;;;;5053687;28;20028;-68
2023/08/19 08:44:13;;;;;;;349.15;315.38;;;32.40;99.90;;;;;;5053435;28;20074;-68
2023/08/19 08:46:40;;;;;;;371.38;334.27;;;32.40;99.90;;;;;;5053450;28;20018;-68
2023/08/19 08:49:08;;;;;;;354.95;319.95;;;32.40;99.90;;;;;;5052923;28;20045;-68
2023/08/19 08:51:35;;;;;;;373.73;336.35;;;32.40;99.90;;;;;;5053430;28;20472;-69
2023/08/19 08:54:05;;;;;;;392.95;353.13;;;32.40;99.90;;;;;;5053472;28;20454;-68
2023/08/19 08:56:32;;;;;;;366.80;330.10;;;32.40;99.90;;;;;;5053317;28;20025;-69
2023/08/19 08:58:59;;;;;;;298.50;270.23;;;32.40;99.90;;;;;;5053557;28;20471;-68
2023/08/19 09:01:27;;;;;;;323.20;291.52;;;32.40;99.90;;;;;;5052911;28;20029;-69
2023/08/19 09:04:02;;;;;;;362.40;325.98;;;32.40;99.90;;;;;;5053253;28;20033;-69
2023/08/19 09:06:28;;;;;;;391.08;351.23;;;32.40;99.90;;;;;;5052926;28;20384;-69
2023/08/19 09:09:09;;;;;;;379.75;341.38;;;32.40;99.90;;;;;;5052997;28;20079;-66
2023/08/19 09:11:42;;;;;;;405.73;364.45;;;32.40;99.90;;;;;;5053390;28;20025;-68
2023/08/19 09:14:27;;;;;;;350.55;315.88;;;32.40;99.90;;;;;;5052878;28;20495;-68
2023/08/19 09:16:54;;;;;;;326.55;295.20;;;32.50;99.90;;;;;;5053078;28;20108;-67
2023/08/19 09:19:20;;;;;;;235.10;213.05;;;32.50;99.90;;;;;;5052898;28;20108;-67
2023/08/19 09:21:47;;;;;;;250.80;227.02;;;32.50;99.90;;;;;;5053120;28;20036;-68
2023/08/19 09:24:18;;;;;;;199.98;180.63;;;32.50;99.90;;;;;;5016911;28;20080;-68
2023/08/19 09:26:45;;;;;;;136.02;123.18;;;32.50;99.90;;;;;;5017609;28;20469;-68
2023/08/19 09:29:12;;;;;;;214.07;194.10;;;32.40;99.90;;;;;;5022071;28;20520;-68
2023/08/19 09:31:39;;;;;;;192.18;174.68;;;32.40;99.90;;;;;;5013786;28;20301;-68
2023/08/19 09:34:06;;;;;;;195.70;177.95;;;32.40;99.90;;;;;;5013323;28;20417;-68
2023/08/19 09:36:32;;;;;;;183.27;166.45;;;32.30;99.90;;;;;;5013522;28;20033;-67
2023/08/19 09:38:59;;;;;;;215.40;194.15;;;32.30;99.90;;;;;;5013438;28;20053;-67
2023/08/19 09:41:28;;;;;;;216.65;196.18;;;32.30;99.90;;;;;;5013330;28;20072;-67
2023/08/19 09:43:58;;;;;;;227.52;205.77;;;32.30;99.90;;;;;;5013399;28;20034;-68
2023/08/19 09:46:33;;;;;;;174.00;157.93;;;32.30;99.90;;;;;;5013636;28;20072;-69
2023/08/19 09:49:01;;;;;;;148.70;134.77;;;32.20;99.90;;;;;;5013185;28;20026;-66
2023/08/19 09:51:29;;;;;;;126.00;113.80;;;32.30;99.90;;;;;;5013184;28;20026;-68
2023/08/19 09:53:56;;;;;;;110.00;99.40;;;32.30;99.90;;;;;;5013099;28;20080;-70
2023/08/19 09:56:25;;;;;;;97.00;86.93;;;32.20;99.90;;;;;;5013139;28;20042;-69
2023/08/19 09:58:54;;;;;;;80.20;72.03;;;32.30;99.90;;;;;;5013107;28;20485;-69
2023/08/19 10:01:22;;;;;;;72.28;61.85;;;32.20;99.90;;;;;;5021754;28;20365;-70
2023/08/19 10:03:49;;;;;;;93.70;84.85;;;32.20;99.90;;;;;;5036354;28;20091;-70
2023/08/19 10:06:26;;;;;;;53.15;46.80;;;32.20;99.90;;;;;;5036553;28;20101;-70
2023/08/19 10:09:02;;;;;;;85.07;76.50;;;32.20;99.90;;;;;;5036173;28;20032;-70
2023/08/19 10:11:31;;;;;;;127.38;115.70;;;32.10;99.90;;;;;;5036563;28;20116;-70
2023/08/19 10:14:06;;;;;;;124.75;113.32;;;32.20;99.90;;;;;;5036166;28;20075;-71
2023/08/19 10:16:35;;;;;;;141.35;125.93;;;32.10;99.90;;;;;;5035981;28;20394;-71
2023/08/19 10:19:04;;;;;;;136.73;123.22;;;32.10;99.90;;;;;;5036144;28;20056;-70
2023/08/19 10:21:32;;;;;;;125.78;113.75;;;32.10;99.90;;;;;;5035992;28;20026;-71
2023/08/19 10:23:59;;;;;;;221.18;200.80;;;32.00;99.90;;;;;;5036122;28;20032;-71
2023/08/19 10:26:26;;;;;;;226.60;205.43;;;32.00;99.90;;;;;;5036139;28;20027;-70
2023/08/19 10:29:12;;;;;;;235.70;213.25;;;32.00;99.90;;;;;;5036115;28;20021;-70
2023/08/19 10:31:40;;;;;;;173.95;157.77;;;31.90;99.90;;;;;;5035728;28;20017;-66
2023/08/19 10:34:11;;;;;;;125.88;114.07;;;31.90;99.90;;;;;;5035831;28;20025;-70
2023/08/19 10:36:39;;;;;;;134.85;121.38;;;31.90;99.90;;;;;;5036057;28;20060;-70
2023/08/19 10:39:15;;;;;;;152.13;137.23;;;31.90;99.90;;;;;;5035611;28;20037;-68
2023/08/19 10:41:42;;;;;;;138.48;125.20;;;31.80;99.90;;;;;;5033840;28;20028;-70
2023/08/19 10:44:13;;;;;;;208.35;188.50;;;31.80;99.90;;;;;;5021655;28;20033;-70
2023/08/19 10:46:42;;;;;;;226.17;205.50;;;31.70;99.90;;;;;;5024098;28;20461;-70
2023/08/19 10:49:19;;;;;;;228.70;207.73;;;31.70;99.90;;;;;;5018828;28;20080;-71
2023/08/19 10:52:01;;;;;;;224.65;203.40;;;31.70;99.90;;;;;;5024657;28;20026;-70
2023/08/19 10:54:31;;;;;;;;;;;31.70;99.90;;;;;;5024425;28;20045;-70
2023/08/19 10:57:21;;;;;;;262.52;237.35;;;31.70;99.90;;;;;;5034875;28;19913;-70
2023/08/19 10:59:53;;;;;;;277.42;250.55;;;31.60;99.90;;;;;;5035770;28;20384;-68
2023/08/19 11:02:20;;;;;;;293.75;265.40;;;31.50;99.90;;;;;;5036462;28;20476;-73
2023/08/19 11:04:48;;;;;;;266.70;240.93;;;31.50;99.90;;;;;;5035058;28;20204;-70
2023/08/19 11:07:14;;;;;;;207.45;187.30;;;31.50;99.90;;;;;;5026811;28;20025;-68
2023/08/19 11:09:43;;;;;;;190.05;171.63;;;31.40;99.90;;;;;;5034375;28;20036;-67
2023/08/19 11:12:11;;;;;;;229.93;208.40;;;31.40;99.90;;;;;;5033476;28;20021;-68
2023/08/19 11:14:38;;;;;;;233.20;211.07;;;31.40;99.90;;;;;;5034823;28;20025;-68
2023/08/19 11:17:05;;;;;;;233.32;211.68;;;31.40;99.90;;;;;;5033913;28;20491;-68
2023/08/19 11:19:32;;;;;;;211.10;190.95;;;31.40;99.90;;;;;;5034169;28;20109;-69
2023/08/19 11:21:59;;;;;;;181.43;164.52;;;31.40;99.90;;;;;;5014365;28;20025;-68
2023/08/19 11:24:33;;;;;;;207.32;187.77;;;31.30;99.90;;;;;;5034087;28;20491;-69
2023/08/19 11:27:00;;;;;;;184.43;167.38;;;31.40;99.90;;;;;;5031867;28;20029;-67
2023/08/19 11:29:27;;;;;;;217.10;197.05;;;31.30;99.90;;;;;;5033353;28;20543;-67
2023/08/19 11:31:54;;;;;;;257.80;232.60;;;31.30;99.90;;;;;;5033708;28;20045;-68
2023/08/19 11:34:21;;;;;;;195.63;177.48;;;31.30;99.90;;;;;;5034196;28;20022;-68
2023/08/19 11:36:48;;;;;;;184.00;167.15;;;31.30;99.90;;;;;;5033180;28;20025;-68
2023/08/19 11:39:14;;;;;;;232.10;210.95;;;31.30;99.90;;;;;;5033066;28;20376;-69
2023/08/19 11:41:45;;;;;;;191.35;174.02;;;31.20;99.90;;;;;;5032446;28;20518;-67
2023/08/19 11:44:12;;;;;;;139.90;126.45;;;31.20;99.90;;;;;;5033659;28;20366;-68
2023/08/19 11:46:38;;;;;;;150.63;136.95;;;31.20;99.90;;;;;;5034001;28;20010;-69
2023/08/19 11:49:10;;;;;;;130.48;118.05;;;31.10;99.90;;;;;;5028051;28;20017;-68
2023/08/19 11:51:40;;;;;;;119.18;107.85;;;31.10;99.90;;;;;;5028188;28;20044;-68
2023/08/19 11:54:11;;;;;;;122.00;109.45;;;31.10;99.90;;;;;;5031292;28;20106;-69
2023/08/19 11:56:50;;;;;;;135.45;121.50;;;31.10;99.90;;;;;;5032266;28;20022;-68
2023/08/19 11:59:18;;;;;;;474.80;425.13;;;31.10;99.90;;;;;;5031991;28;20507;-69
2023/08/19 12:01:46;;;;;;;789.22;710.88;;;31.10;99.90;;;;;;5030459;28;20040;-70
2023/08/19 12:04:15;;;;;;;1260.88;999.90;;;31.00;99.90;;;;;;5028140;28;20025;-71
2023/08/19 12:06:43;;;;;;;1254.00;999.90;;;31.00;99.90;;;;;;5033490;28;20020;-69
2023/08/19 12:09:10;;;;;;;1208.50;999.90;;;30.90;99.90;;;;;;5033134;28;20400;-69
2023/08/19 12:11:38;;;;;;;1347.40;999.90;;;30.80;99.90;;;;;;5033666;28;20029;-68
2023/08/19 12:14:06;;;;;;;1441.82;999.90;;;30.80;99.90;;;;;;5030591;28;20113;-69